createdAt,value
2018-10-12T00:02:30.620Z,10.30
2018-10-12T00:07:34.058Z,10.50
2018-10-12T00:12:37.284Z,10.60
2018-10-12T00:17:40.558Z,10.50
2018-10-12T00:22:43.960Z,10.70
2018-10-12T00:27:47.280Z,10.60
2018-10-12T00:32:50.616Z,10.60
2018-10-12T00:37:53.892Z,10.80
2018-10-12T00:48:01.239Z,10.80
2018-10-12T00:53:04.497Z,10.70
2018-10-12T00:58:07.976Z,10.40
2018-10-12T01:03:11.222Z,10.40
2018-10-12T01:08:15.528Z,10.40
2018-10-12T01:13:19.113Z,10.40
2018-10-12T01:18:22.388Z,10.30
2018-10-12T01:23:25.626Z,10.30
2018-10-12T01:28:28.975Z,10.40
2018-10-12T01:33:32.340Z,10.40
2018-10-12T01:38:35.741Z,10.40
2018-10-12T01:43:38.963Z,10.50
2018-10-12T01:48:42.301Z,10.50
2018-10-12T01:53:45.575Z,10.50
2018-10-12T01:58:48.908Z,10.40
2018-10-12T02:03:52.380Z,10.40
2018-10-12T02:08:55.657Z,10.40
2018-10-12T02:13:58.896Z,10.40
2018-10-12T02:19:02.296Z,10.40
2018-10-12T02:24:05.569Z,10.50
2018-10-12T02:29:08.799Z,10.70
2018-10-12T02:34:12.108Z,10.80
2018-10-12T02:39:15.979Z,10.80
2018-10-12T02:49:22.236Z,10.90
2018-10-12T02:54:25.540Z,10.80
2018-10-12T02:59:28.932Z,10.90
2018-10-12T03:04:32.145Z,10.90
2018-10-12T03:09:35.475Z,10.90
2018-10-12T03:14:38.756Z,11.00
2018-10-12T03:19:42.073Z,11.10
2018-10-12T03:24:45.339Z,11.00
2018-10-12T03:29:48.608Z,10.90
2018-10-12T03:34:51.898Z,10.90
2018-10-12T03:39:55.134Z,10.90
2018-10-12T03:44:58.408Z,10.90
2018-10-12T03:50:01.898Z,10.80
2018-10-12T03:55:05.428Z,10.70
2018-10-12T04:00:08.735Z,10.80
2018-10-12T04:05:11.983Z,10.90
2018-10-12T04:10:15.251Z,10.90
2018-10-12T04:15:18.513Z,10.80
2018-10-12T04:20:21.820Z,10.80
2018-10-12T04:25:25.144Z,10.90
2018-10-12T04:30:28.421Z,10.90
2018-10-12T04:35:31.648Z,10.90
2018-10-12T04:41:22.908Z,11.00
2018-10-12T04:46:33.983Z,11.00
2018-10-12T04:51:42.782Z,11.10
2018-10-12T04:56:46.624Z,11.00
2018-10-12T05:01:49.875Z,11.10
2018-10-12T05:06:53.209Z,11.10
2018-10-12T05:11:56.460Z,11.10
2018-10-12T05:16:59.712Z,11.10
2018-10-12T05:22:03.071Z,11.10
2018-10-12T05:27:06.262Z,10.90
2018-10-12T05:32:09.505Z,10.90
2018-10-12T05:37:12.752Z,11.00
2018-10-12T05:42:15.980Z,11.00
2018-10-12T05:47:19.299Z,11.10
2018-10-12T05:52:22.540Z,11.10
2018-10-12T05:57:25.826Z,11.20
2018-10-12T06:02:29.128Z,11.20
2018-10-12T06:07:32.477Z,11.30
2018-10-12T06:12:35.765Z,11.40
2018-10-12T06:17:38.992Z,11.50
2018-10-12T06:22:42.325Z,11.50
2018-10-12T06:27:45.824Z,11.60
2018-10-12T06:32:49.141Z,11.60
2018-10-12T06:37:52.368Z,11.70
2018-10-12T06:42:55.697Z,11.70
2018-10-12T06:47:59.016Z,11.70
2018-10-12T06:53:02.325Z,11.70
2018-10-12T06:58:05.577Z,11.80
2018-10-12T07:03:08.864Z,11.90
2018-10-12T07:08:12.136Z,12.00
2018-10-12T07:13:15.463Z,11.90
2018-10-12T07:18:18.832Z,12.00
2018-10-12T07:23:22.092Z,12.10
2018-10-12T07:28:25.340Z,12.20
2018-10-12T07:41:01.955Z,12.70
2018-10-12T07:46:05.467Z,13.10
2018-10-12T07:51:08.750Z,13.40
2018-10-12T07:56:12.055Z,13.80
2018-10-12T08:01:15.377Z,13.90
2018-10-12T08:06:18.789Z,14.30
2018-10-12T08:11:22.130Z,14.50
2018-10-12T08:16:25.573Z,14.50
2018-10-12T08:21:29.582Z,15.40
2018-10-12T08:26:32.857Z,15.60
2018-10-12T08:31:36.299Z,16.00
2018-10-12T08:36:39.560Z,15.90
2018-10-12T08:41:42.973Z,16.60
2018-10-12T08:46:46.278Z,16.90
2018-10-12T08:51:49.677Z,17.10
2018-10-12T08:56:52.976Z,17.50
2018-10-12T09:01:56.270Z,17.70
2018-10-12T09:06:59.542Z,17.90
2018-10-12T09:12:02.887Z,18.00
2018-10-12T09:17:06.380Z,18.20
2018-10-12T09:22:09.665Z,18.20
2018-10-12T09:27:12.975Z,18.70
2018-10-12T09:32:16.202Z,18.80
2018-10-12T09:37:19.551Z,18.80
2018-10-12T09:42:23.006Z,18.50
2018-10-12T09:47:26.305Z,18.70
2018-10-12T09:57:34.697Z,19.10
2018-10-12T10:02:48.224Z,19.30
2018-10-12T10:07:51.764Z,19.90
2018-10-12T10:12:55.065Z,19.60
2018-10-12T10:17:58.553Z,19.70
2018-10-12T10:23:01.872Z,20.10
2018-10-12T10:28:05.546Z,20.10
2018-10-12T10:33:08.997Z,20.40
2018-10-12T10:38:12.329Z,20.50
2018-10-12T10:43:15.605Z,21.10
2018-10-12T10:48:18.935Z,20.40
2018-10-12T10:53:22.263Z,20.90
2018-10-12T10:58:25.574Z,21.10
2018-10-12T11:03:28.861Z,21.30
2018-10-12T11:08:32.217Z,21.60
2018-10-12T11:13:35.498Z,21.40
2018-10-12T11:18:38.855Z,21.30
2018-10-12T11:23:42.137Z,22.20
2018-10-12T11:28:45.513Z,22.00
2018-10-12T11:33:48.836Z,21.80
2018-10-12T11:38:52.183Z,22.50
2018-10-12T11:43:55.578Z,22.70
2018-10-12T11:48:58.974Z,22.60
2018-10-12T11:54:02.258Z,23.00
2018-10-12T11:59:05.603Z,23.30
2018-10-12T12:04:09.038Z,23.20
2018-10-12T12:09:12.426Z,23.40
2018-10-12T12:14:15.819Z,23.40
2018-10-12T12:19:19.145Z,23.60
2018-10-12T12:24:22.587Z,23.70
2018-10-12T12:29:25.892Z,23.60
2018-10-12T12:34:29.250Z,24.30
2018-10-12T12:39:32.711Z,23.70
2018-10-12T12:44:36.126Z,24.00
2018-10-12T12:49:39.713Z,24.20
2018-10-12T12:54:43.194Z,24.30
2018-10-12T12:59:46.606Z,24.30
2018-10-12T13:04:49.964Z,24.40
2018-10-12T13:09:53.419Z,24.80
2018-10-12T13:14:56.836Z,25.00
2018-10-12T13:20:00.239Z,25.10
2018-10-12T13:25:03.694Z,24.90
2018-10-12T13:30:07.185Z,25.30
2018-10-12T13:35:10.578Z,25.30
2018-10-12T13:40:13.958Z,25.60
2018-10-12T13:45:17.562Z,25.80
2018-10-12T13:50:21.057Z,25.70
2018-10-12T13:55:24.499Z,25.80
2018-10-12T14:00:27.831Z,25.90
2018-10-12T14:05:31.109Z,26.10
2018-10-12T14:10:34.463Z,25.90
2018-10-12T14:15:37.871Z,26.20
2018-10-12T14:20:41.496Z,26.30
2018-10-12T14:25:44.898Z,26.40
2018-10-12T14:30:48.358Z,26.10
2018-10-12T14:35:51.782Z,26.40
2018-10-12T14:40:55.164Z,26.40
2018-10-12T14:45:58.601Z,26.20
2018-10-12T14:51:01.954Z,26.10
2018-10-12T14:56:05.338Z,25.90
2018-10-12T15:01:08.794Z,25.90
2018-10-12T15:06:12.265Z,25.90
2018-10-12T15:11:15.597Z,25.90
2018-10-12T15:16:19.077Z,26.00
2018-10-12T15:21:22.727Z,25.60
2018-10-12T15:26:25.953Z,25.30
2018-10-12T15:31:29.315Z,25.20
2018-10-12T15:36:32.645Z,25.00
2018-10-12T15:41:36.210Z,24.70
2018-10-12T15:46:39.607Z,24.60
2018-10-12T15:51:42.902Z,24.50
2018-10-12T15:56:46.240Z,24.10
2018-10-12T16:01:49.585Z,23.90
2018-10-12T16:06:52.868Z,23.70
2018-10-12T16:11:56.199Z,23.20
2018-10-12T16:16:59.582Z,22.80
2018-10-12T16:22:02.891Z,22.50
2018-10-12T16:27:06.367Z,21.90
2018-10-12T16:32:09.949Z,21.60
2018-10-12T16:37:13.393Z,21.20
2018-10-12T16:42:16.985Z,20.80
2018-10-12T16:47:20.424Z,20.50
2018-10-12T16:52:23.895Z,19.90
2018-10-12T16:57:34.998Z,19.60
2018-10-12T17:02:38.361Z,19.50
2018-10-12T17:07:41.714Z,18.80
2018-10-12T17:12:45.251Z,18.50
2018-10-12T17:17:48.488Z,18.30
2018-10-12T17:22:51.849Z,18.10
2018-10-12T17:27:55.385Z,18.20
2018-10-12T17:32:58.761Z,18.00
2018-10-12T17:38:02.108Z,17.70
2018-10-12T17:43:05.787Z,17.50
2018-10-12T17:48:09.153Z,17.60
2018-10-12T17:53:12.566Z,17.50
2018-10-12T17:58:15.878Z,17.30
2018-10-12T18:03:19.157Z,17.10
2018-10-12T18:08:22.544Z,17.00
2018-10-12T18:13:28.902Z,16.40
2018-10-12T18:18:32.178Z,16.20
2018-10-12T18:23:37.435Z,15.80
2018-10-12T18:28:40.847Z,15.50
2018-10-12T18:33:44.341Z,15.50
2018-10-12T18:38:47.614Z,15.90
2018-10-12T18:43:51.088Z,15.60
2018-10-12T18:48:54.554Z,15.40
2018-10-12T18:53:58.117Z,15.20
2018-10-12T18:59:01.462Z,15.00
2018-10-12T19:09:10.466Z,14.70
2018-10-12T19:14:13.834Z,14.90
2018-10-12T19:19:21.084Z,14.60
2018-10-12T19:24:24.887Z,14.50
2018-10-12T19:29:31.684Z,14.50
2018-10-12T19:34:35.145Z,14.30
2018-10-12T19:39:38.622Z,13.90
2018-10-12T19:44:42.257Z,13.90
2018-10-12T19:49:45.967Z,13.70
2018-10-12T19:54:49.514Z,13.60
2018-10-12T19:59:53.145Z,13.40
2018-10-12T20:04:57.530Z,13.40
2018-10-12T20:10:00.910Z,13.60
2018-10-12T20:15:04.319Z,13.40
2018-10-12T20:20:07.857Z,13.30
2018-10-12T20:25:11.450Z,13.30
2018-10-12T20:30:15.205Z,13.10
2018-10-12T20:35:18.893Z,12.90
2018-10-12T20:40:22.625Z,12.80
2018-10-12T20:45:26.304Z,13.00
2018-10-12T20:50:29.891Z,12.70
2018-10-12T20:55:33.603Z,12.90
2018-10-12T21:00:37.298Z,12.80
2018-10-12T21:05:43.890Z,12.90
2018-10-12T21:10:47.357Z,12.80
2018-10-12T21:15:50.948Z,12.80
2018-10-12T21:31:01.288Z,12.50
2018-10-12T21:36:05.124Z,12.50
2018-10-12T21:41:08.457Z,12.30
2018-10-12T21:46:11.913Z,12.10
2018-10-12T21:51:15.378Z,11.80
2018-10-12T21:56:18.939Z,11.60
2018-10-12T22:01:22.282Z,11.90
2018-10-12T22:06:25.914Z,12.00
2018-10-12T22:11:29.323Z,12.00
2018-10-12T22:16:32.824Z,11.60
2018-10-12T22:21:36.161Z,11.40
2018-10-12T22:26:40.149Z,11.50
2018-10-12T22:31:43.481Z,11.50
2018-10-12T22:36:46.822Z,11.40
2018-10-12T22:41:50.121Z,11.30
2018-10-12T22:46:53.631Z,11.20
2018-10-12T22:51:57.064Z,11.10
2018-10-12T22:57:00.465Z,10.90
2018-10-12T23:02:03.833Z,10.70
2018-10-12T23:07:07.192Z,11.00
2018-10-12T23:12:10.503Z,10.60
2018-10-12T23:17:13.859Z,10.40
2018-10-12T23:22:17.261Z,10.20
2018-10-12T23:27:20.549Z,10.10
2018-10-12T23:32:23.982Z,10.00
2018-10-12T23:37:27.321Z,10.20
2018-10-12T23:42:31.678Z,10.40
2018-10-12T23:47:35.183Z,10.40
2018-10-12T23:52:38.594Z,10.40
2018-10-12T23:57:41.841Z,10.20
